sensor_id;sensor_type;location;lat;lon;timestamp;temperature;humidity
5802;DHT22;2927;49.366;8.530;2023-08-20T00:00:11;24.80;1.00
5802;DHT22;2927;49.366;8.530;2023-08-20T00:02:37;24.70;99.90
5802;DHT22;2927;49.366;8.530;2023-08-20T00:05:04;24.70;99.90
5802;DHT22;2927;49.366;8.530;2023-08-20T00:07:33;24.70;1.00
5802;DHT22;2927;49.366;8.530;2023-08-20T00:09:59;24.60;1.00
5802;DHT22;2927;49.366;8.530;2023-08-20T00:12:25;24.60;6.70
5802;DHT22;2927;49.366;8.530;2023-08-20T00:15:02;24.60;99.90
5802;DHT22;2927;49.366;8.530;2023-08-20T00:17:33;24.50;99.90
5802;DHT22;2927;49.366;8.530;2023-08-20T00:19:59;24.40;99.90
5802;DHT22;2927;49.366;8.530;2023-08-20T00:22:25;24.40;1.00
5802;DHT22;2927;49.366;8.530;2023-08-20T00:24:52;24.30;1.00
5802;DHT22;2927;49.366;8.530;2023-08-20T00:27:18;24.30;1.00
5802;DHT22;2927;49.366;8.530;2023-08-20T00:29:44;24.30;1.00
5802;DHT22;2927;49.366;8.530;2023-08-20T00:32:09;24.20;5.40
5802;DHT22;2927;49.366;8.530;2023-08-20T00:34:35;24.20;99.90
5802;DHT22;2927;49.366;8.530;2023-08-20T00:37:01;24.20;99.90
5802;DHT22;2927;49.366;8.530;2023-08-20T00:39:28;24.20;99.90
5802;DHT22;2927;49.366;8.530;2023-08-20T00:41:53;24.20;72.20
5802;DHT22;2927;49.366;8.530;2023-08-20T00:44:19;24.20;1.00
5802;DHT22;2927;49.366;8.530;2023-08-20T00:46:45;24.20;1.00
5802;DHT22;2927;49.366;8.530;2023-08-20T00:49:10;24.20;1.00
5802;DHT22;2927;49.366;8.530;2023-08-20T00:51:36;24.20;1.00
5802;DHT22;2927;49.366;8.530;2023-08-20T00:54:03;24.10;1.00
5802;DHT22;2927;49.366;8.530;2023-08-20T00:56:29;24.10;99.90
5802;DHT22;2927;49.366;8.530;2023-08-20T00:58:55;24.10;99.90
5802;DHT22;2927;49.366;8.530;2023-08-20T01:01:22;24.10;1.00
5802;DHT22;2927;49.366;8.530;2023-08-20T01:03:48;24.10;1.00
5802;DHT22;2927;49.366;8.530;2023-08-20T01:06:55;24.10;1.00
5802;DHT22;2927;49.366;8.530;2023-08-20T01:09:35;24.00;1.00
5802;DHT22;2927;49.366;8.530;2023-08-20T01:12:03;24.00;1.00
5802;DHT22;2927;49.366;8.530;2023-08-20T01:14:29;23.90;99.90
5802;DHT22;2927;49.366;8.530;2023-08-20T01:16:54;23.90;1.00
5802;DHT22;2927;49.366;8.530;2023-08-20T01:19:22;23.90;1.00
5802;DHT22;2927;49.366;8.530;2023-08-20T01:30:09;23.90;21.10
5802;DHT22;2927;49.366;8.530;2023-08-20T01:32:36;23.80;1.00
5802;DHT22;2927;49.366;8.530;2023-08-20T01:35:02;23.80;96.40
5802;DHT22;2927;49.366;8.530;2023-08-20T01:37:28;23.80;1.00
5802;DHT22;2927;49.366;8.530;2023-08-20T01:39:54;23.80;1.00
5802;DHT22;2927;49.366;8.530;2023-08-20T01:42:19;23.80;1.00
5802;DHT22;2927;49.366;8.530;2023-08-20T01:44:45;23.70;1.00
5802;DHT22;2927;49.366;8.530;2023-08-20T01:47:10;23.60;1.00
5802;DHT22;2927;49.366;8.530;2023-08-20T01:49:36;23.50;99.90
5802;DHT22;2927;49.366;8.530;2023-08-20T01:52:01;23.50;99.90
5802;DHT22;2927;49.366;8.530;2023-08-20T01:54:27;23.50;99.90
5802;DHT22;2927;49.366;8.530;2023-08-20T01:56:54;23.50;99.90
5802;DHT22;2927;49.366;8.530;2023-08-20T01:59:21;23.40;99.90
5802;DHT22;2927;49.366;8.530;2023-08-20T02:01:47;23.40;1.00
5802;DHT22;2927;49.366;8.530;2023-08-20T02:04:12;23.40;99.90
5802;DHT22;2927;49.366;8.530;2023-08-20T02:06:38;23.30;1.00
5802;DHT22;2927;49.366;8.530;2023-08-20T02:09:03;23.30;1.00
5802;DHT22;2927;49.366;8.530;2023-08-20T02:11:29;23.20;1.00
5802;DHT22;2927;49.366;8.530;2023-08-20T02:13:58;23.20;1.00
5802;DHT22;2927;49.366;8.530;2023-08-20T02:16:23;23.10;1.00
5802;DHT22;2927;49.366;8.530;2023-08-20T02:18:49;23.00;1.00
5802;DHT22;2927;49.366;8.530;2023-08-20T02:21:14;23.00;1.00
5802;DHT22;2927;49.366;8.530;2023-08-20T02:23:40;22.90;1.00
5802;DHT22;2927;49.366;8.530;2023-08-20T02:26:05;22.80;14.60
5802;DHT22;2927;49.366;8.530;2023-08-20T02:28:31;22.80;99.90
5802;DHT22;2927;49.366;8.530;2023-08-20T02:30:57;22.70;1.00
5802;DHT22;2927;49.366;8.530;2023-08-20T02:33:23;22.70;1.00
5802;DHT22;2927;49.366;8.530;2023-08-20T02:35:48;22.70;1.00
5802;DHT22;2927;49.366;8.530;2023-08-20T02:38:14;22.60;1.00
5802;DHT22;2927;49.366;8.530;2023-08-20T02:40:43;22.60;23.40
5802;DHT22;2927;49.366;8.530;2023-08-20T02:43:09;22.60;99.90
5802;DHT22;2927;49.366;8.530;2023-08-20T02:45:42;22.50;1.00
5802;DHT22;2927;49.366;8.530;2023-08-20T02:48:08;22.40;1.00
5802;DHT22;2927;49.366;8.530;2023-08-20T02:50:33;22.40;1.00
5802;DHT22;2927;49.366;8.530;2023-08-20T02:52:59;22.40;1.00
5802;DHT22;2927;49.366;8.530;2023-08-20T02:55:24;22.40;1.00
5802;DHT22;2927;49.366;8.530;2023-08-20T02:57:50;22.40;1.00
5802;DHT22;2927;49.366;8.530;2023-08-20T03:00:16;22.40;1.00
5802;DHT22;2927;49.366;8.530;2023-08-20T03:02:41;22.40;1.00
5802;DHT22;2927;49.366;8.530;2023-08-20T03:05:08;22.40;1.00
5802;DHT22;2927;49.366;8.530;2023-08-20T03:07:34;22.30;1.00
5802;DHT22;2927;49.366;8.530;2023-08-20T03:09:59;22.30;1.00
5802;DHT22;2927;49.366;8.530;2023-08-20T03:12:25;22.40;1.00
5802;DHT22;2927;49.366;8.530;2023-08-20T03:14:50;22.40;1.00
5802;DHT22;2927;49.366;8.530;2023-08-20T03:17:16;22.40;1.00
5802;DHT22;2927;49.366;8.530;2023-08-20T03:19:54;22.30;1.00
5802;DHT22;2927;49.366;8.530;2023-08-20T03:22:21;22.30;1.00
5802;DHT22;2927;49.366;8.530;2023-08-20T03:24:47;22.20;1.00
5802;DHT22;2927;49.366;8.530;2023-08-20T03:27:12;22.20;1.00
5802;DHT22;2927;49.366;8.530;2023-08-20T03:29:38;22.20;1.00
5802;DHT22;2927;49.366;8.530;2023-08-20T03:32:03;22.20;1.00
5802;DHT22;2927;49.366;8.530;2023-08-20T03:34:29;22.20;1.00
5802;DHT22;2927;49.366;8.530;2023-08-20T03:36:55;22.20;1.00
5802;DHT22;2927;49.366;8.530;2023-08-20T03:39:20;22.20;1.00
5802;DHT22;2927;49.366;8.530;2023-08-20T03:41:46;22.20;1.00
5802;DHT22;2927;49.366;8.530;2023-08-20T03:44:11;22.20;1.00
5802;DHT22;2927;49.366;8.530;2023-08-20T03:46:37;22.10;1.00
5802;DHT22;2927;49.366;8.530;2023-08-20T03:49:03;22.10;1.00
5802;DHT22;2927;49.366;8.530;2023-08-20T03:51:28;22.10;1.00
5802;DHT22;2927;49.366;8.530;2023-08-20T03:53:54;22.10;1.00
5802;DHT22;2927;49.366;8.530;2023-08-20T03:56:19;22.10;1.00
5802;DHT22;2927;49.366;8.530;2023-08-20T03:58:45;22.00;1.00
5802;DHT22;2927;49.366;8.530;2023-08-20T04:01:10;22.00;1.00
5802;DHT22;2927;49.366;8.530;2023-08-20T04:03:36;21.90;1.00
5802;DHT22;2927;49.366;8.530;2023-08-20T04:06:02;21.90;1.00
5802;DHT22;2927;49.366;8.530;2023-08-20T04:08:29;21.90;1.00
5802;DHT22;2927;49.366;8.530;2023-08-20T04:10:54;22.00;1.00
5802;DHT22;2927;49.366;8.530;2023-08-20T04:13:20;22.00;1.00
5802;DHT22;2927;49.366;8.530;2023-08-20T04:15:46;21.90;1.00
5802;DHT22;2927;49.366;8.530;2023-08-20T04:18:11;21.90;1.00
5802;DHT22;2927;49.366;8.530;2023-08-20T04:20:37;21.80;1.00
5802;DHT22;2927;49.366;8.530;2023-08-20T04:23:03;21.80;1.00
5802;DHT22;2927;49.366;8.530;2023-08-20T04:25:28;21.80;1.00
5802;DHT22;2927;49.366;8.530;2023-08-20T04:27:54;21.80;1.00
5802;DHT22;2927;49.366;8.530;2023-08-20T04:30:19;21.80;1.00
5802;DHT22;2927;49.366;8.530;2023-08-20T04:32:45;21.80;1.00
5802;DHT22;2927;49.366;8.530;2023-08-20T04:35:10;21.80;1.00
5802;DHT22;2927;49.366;8.530;2023-08-20T04:37:36;21.90;1.00
5802;DHT22;2927;49.366;8.530;2023-08-20T04:40:02;21.90;1.00
5802;DHT22;2927;49.366;8.530;2023-08-20T04:42:31;22.00;1.00
5802;DHT22;2927;49.366;8.530;2023-08-20T04:44:57;22.00;1.00
5802;DHT22;2927;49.366;8.530;2023-08-20T04:47:22;22.00;1.00
5802;DHT22;2927;49.366;8.530;2023-08-20T04:49:48;22.00;1.00
5802;DHT22;2927;49.366;8.530;2023-08-20T04:52:13;22.10;1.00
5802;DHT22;2927;49.366;8.530;2023-08-20T04:54:39;22.20;1.00
5802;DHT22;2927;49.366;8.530;2023-08-20T04:57:04;22.20;1.00
5802;DHT22;2927;49.366;8.530;2023-08-20T04:59:30;22.30;1.00
5802;DHT22;2927;49.366;8.530;2023-08-20T05:01:56;22.40;99.90
5802;DHT22;2927;49.366;8.530;2023-08-20T05:04:22;22.40;99.90
5802;DHT22;2927;49.366;8.530;2023-08-20T05:06:47;22.30;1.00
5802;DHT22;2927;49.366;8.530;2023-08-20T05:09:13;22.30;1.00
5802;DHT22;2927;49.366;8.530;2023-08-20T05:11:38;22.30;99.90
5802;DHT22;2927;49.366;8.530;2023-08-20T05:14:04;22.30;1.00
5802;DHT22;2927;49.366;8.530;2023-08-20T05:16:30;22.40;1.00
5802;DHT22;2927;49.366;8.530;2023-08-20T05:18:55;22.30;1.00
5802;DHT22;2927;49.366;8.530;2023-08-20T05:21:21;22.40;1.00
5802;DHT22;2927;49.366;8.530;2023-08-20T05:23:46;22.50;99.90
5802;DHT22;2927;49.366;8.530;2023-08-20T05:26:12;22.40;1.00
5802;DHT22;2927;49.366;8.530;2023-08-20T05:28:37;22.60;99.90
5802;DHT22;2927;49.366;8.530;2023-08-20T05:31:03;22.60;1.00
5802;DHT22;2927;49.366;8.530;2023-08-20T05:33:28;22.70;1.00
5802;DHT22;2927;49.366;8.530;2023-08-20T05:35:54;23.00;1.00
5802;DHT22;2927;49.366;8.530;2023-08-20T05:38:19;23.30;1.00
5802;DHT22;2927;49.366;8.530;2023-08-20T05:40:45;23.50;99.90
5802;DHT22;2927;49.366;8.530;2023-08-20T05:43:10;23.70;99.90
5802;DHT22;2927;49.366;8.530;2023-08-20T05:45:36;23.90;99.90
5802;DHT22;2927;49.366;8.530;2023-08-20T05:48:01;24.10;99.90
5802;DHT22;2927;49.366;8.530;2023-08-20T05:50:27;24.60;1.00
5802;DHT22;2927;49.366;8.530;2023-08-20T05:52:52;24.90;1.00
5802;DHT22;2927;49.366;8.530;2023-08-20T05:55:18;25.30;99.90
5802;DHT22;2927;49.366;8.530;2023-08-20T05:57:44;26.40;1.00
5802;DHT22;2927;49.366;8.530;2023-08-20T06:00:10;28.20;1.00
5802;DHT22;2927;49.366;8.530;2023-08-20T06:02:36;29.40;99.90
5802;DHT22;2927;49.366;8.530;2023-08-20T06:05:03;30.00;99.90
5802;DHT22;2927;49.366;8.530;2023-08-20T06:07:30;29.30;99.90
5802;DHT22;2927;49.366;8.530;2023-08-20T06:09:56;29.40;99.90
5802;DHT22;2927;49.366;8.530;2023-08-20T06:12:22;28.70;99.90
5802;DHT22;2927;49.366;8.530;2023-08-20T06:14:48;28.30;99.90
5802;DHT22;2927;49.366;8.530;2023-08-20T06:17:13;28.80;99.90
5802;DHT22;2927;49.366;8.530;2023-08-20T06:19:39;29.60;99.90
5802;DHT22;2927;49.366;8.530;2023-08-20T06:22:04;30.80;99.90
5802;DHT22;2927;49.366;8.530;2023-08-20T06:24:30;31.10;72.50
5802;DHT22;2927;49.366;8.530;2023-08-20T06:26:55;31.70;23.00
5802;DHT22;2927;49.366;8.530;2023-08-20T06:29:21;32.50;1.00
5802;DHT22;2927;49.366;8.530;2023-08-20T06:31:49;33.30;1.00
5802;DHT22;2927;49.366;8.530;2023-08-20T06:34:16;33.60;1.00
5802;DHT22;2927;49.366;8.530;2023-08-20T06:36:42;34.00;1.00
5802;DHT22;2927;49.366;8.530;2023-08-20T06:39:07;32.50;1.00
5802;DHT22;2927;49.366;8.530;2023-08-20T06:41:34;31.00;1.00
5802;DHT22;2927;49.366;8.530;2023-08-20T06:43:59;29.80;29.00
5802;DHT22;2927;49.366;8.530;2023-08-20T06:46:25;29.70;93.50
5802;DHT22;2927;49.366;8.530;2023-08-20T06:48:50;29.60;99.90
5802;DHT22;2927;49.366;8.530;2023-08-20T06:51:19;28.80;99.90
5802;DHT22;2927;49.366;8.530;2023-08-20T06:53:45;28.40;99.90
5802;DHT22;2927;49.366;8.530;2023-08-20T06:56:11;28.30;99.90
5802;DHT22;2927;49.366;8.530;2023-08-20T06:58:38;28.30;99.90
5802;DHT22;2927;49.366;8.530;2023-08-20T07:01:04;28.30;99.90
5802;DHT22;2927;49.366;8.530;2023-08-20T07:03:43;28.40;99.90
5802;DHT22;2927;49.366;8.530;2023-08-20T07:06:10;28.40;99.90
5802;DHT22;2927;49.366;8.530;2023-08-20T07:08:37;28.30;99.90
5802;DHT22;2927;49.366;8.530;2023-08-20T07:11:05;28.40;99.90
5802;DHT22;2927;49.366;8.530;2023-08-20T07:13:30;28.30;99.90
5802;DHT22;2927;49.366;8.530;2023-08-20T07:15:56;28.30;99.90
5802;DHT22;2927;49.366;8.530;2023-08-20T07:18:22;28.40;99.90
5802;DHT22;2927;49.366;8.530;2023-08-20T07:20:47;28.40;99.90
5802;DHT22;2927;49.366;8.530;2023-08-20T07:23:13;28.50;99.90
5802;DHT22;2927;49.366;8.530;2023-08-20T07:25:41;28.30;99.90
5802;DHT22;2927;49.366;8.530;2023-08-20T07:28:07;28.10;1.00
5802;DHT22;2927;49.366;8.530;2023-08-20T07:30:34;28.10;1.00
5802;DHT22;2927;49.366;8.530;2023-08-20T07:33:00;28.20;1.00
5802;DHT22;2927;49.366;8.530;2023-08-20T07:35:26;28.70;99.90
5802;DHT22;2927;49.366;8.530;2023-08-20T07:37:52;29.90;99.90
5802;DHT22;2927;49.366;8.530;2023-08-20T07:40:17;32.20;75.50
5802;DHT22;2927;49.366;8.530;2023-08-20T07:42:43;33.80;1.00
5802;DHT22;2927;49.366;8.530;2023-08-20T07:45:09;35.30;1.00
5802;DHT22;2927;49.366;8.530;2023-08-20T07:47:38;36.40;1.00
5802;DHT22;2927;49.366;8.530;2023-08-20T07:50:06;36.70;1.00
5802;DHT22;2927;49.366;8.530;2023-08-20T07:52:32;37.00;1.00
5802;DHT22;2927;49.366;8.530;2023-08-20T07:54:58;36.90;1.00
5802;DHT22;2927;49.366;8.530;2023-08-20T07:57:23;37.10;1.00
5802;DHT22;2927;49.366;8.530;2023-08-20T07:59:50;37.40;1.00
5802;DHT22;2927;49.366;8.530;2023-08-20T08:02:15;37.80;1.00
5802;DHT22;2927;49.366;8.530;2023-08-20T08:04:41;37.10;1.00
5802;DHT22;2927;49.366;8.530;2023-08-20T08:07:07;37.00;1.00
5802;DHT22;2927;49.366;8.530;2023-08-20T08:09:33;38.00;1.00
5802;DHT22;2927;49.366;8.530;2023-08-20T08:11:59;38.50;1.00
5802;DHT22;2927;49.366;8.530;2023-08-20T08:14:25;38.70;1.00
5802;DHT22;2927;49.366;8.530;2023-08-20T08:16:51;38.90;1.00
5802;DHT22;2927;49.366;8.530;2023-08-20T08:19:17;38.70;1.00
5802;DHT22;2927;49.366;8.530;2023-08-20T08:21:43;39.20;1.00
5802;DHT22;2927;49.366;8.530;2023-08-20T08:24:10;39.20;1.00
5802;DHT22;2927;49.366;8.530;2023-08-20T08:26:36;39.30;1.00
5802;DHT22;2927;49.366;8.530;2023-08-20T08:29:03;39.60;1.00
5802;DHT22;2927;49.366;8.530;2023-08-20T08:31:29;39.50;1.00
5802;DHT22;2927;49.366;8.530;2023-08-20T08:33:54;39.70;1.00
5802;DHT22;2927;49.366;8.530;2023-08-20T08:36:20;40.40;1.00
5802;DHT22;2927;49.366;8.530;2023-08-20T08:38:46;40.60;1.00
5802;DHT22;2927;49.366;8.530;2023-08-20T08:41:12;40.80;1.00
5802;DHT22;2927;49.366;8.530;2023-08-20T08:43:39;41.10;1.00
5802;DHT22;2927;49.366;8.530;2023-08-20T08:46:12;41.10;1.00
5802;DHT22;2927;49.366;8.530;2023-08-20T08:48:40;41.50;1.00
5802;DHT22;2927;49.366;8.530;2023-08-20T08:51:06;41.30;1.00
5802;DHT22;2927;49.366;8.530;2023-08-20T08:53:33;41.60;1.00
5802;DHT22;2927;49.366;8.530;2023-08-20T08:55:59;40.90;1.00
5802;DHT22;2927;49.366;8.530;2023-08-20T08:58:25;40.80;1.00
5802;DHT22;2927;49.366;8.530;2023-08-20T09:00:51;40.70;1.00
5802;DHT22;2927;49.366;8.530;2023-08-20T09:03:16;41.20;1.00
5802;DHT22;2927;49.366;8.530;2023-08-20T09:05:46;41.10;1.00
5802;DHT22;2927;49.366;8.530;2023-08-20T09:08:22;41.70;1.00
5802;DHT22;2927;49.366;8.530;2023-08-20T09:10:51;41.30;1.00
5802;DHT22;2927;49.366;8.530;2023-08-20T09:13:22;41.50;1.00
5802;DHT22;2927;49.366;8.530;2023-08-20T09:15:53;41.40;1.00
5802;DHT22;2927;49.366;8.530;2023-08-20T09:18:19;41.30;1.00
5802;DHT22;2927;49.366;8.530;2023-08-20T09:20:47;41.10;1.00
5802;DHT22;2927;49.366;8.530;2023-08-20T09:23:13;41.30;1.00
5802;DHT22;2927;49.366;8.530;2023-08-20T09:25:39;41.10;1.00
5802;DHT22;2927;49.366;8.530;2023-08-20T09:28:05;41.50;1.00
5802;DHT22;2927;49.366;8.530;2023-08-20T09:30:31;41.30;1.00
5802;DHT22;2927;49.366;8.530;2023-08-20T09:35:29;42.10;1.00
5802;DHT22;2927;49.366;8.530;2023-08-20T09:37:59;42.00;1.00
5802;DHT22;2927;49.366;8.530;2023-08-20T09:40:26;42.20;1.00
5802;DHT22;2927;49.366;8.530;2023-08-20T09:42:52;42.40;1.00
5802;DHT22;2927;49.366;8.530;2023-08-20T09:45:20;42.30;1.00
5802;DHT22;2927;49.366;8.530;2023-08-20T09:47:48;42.30;1.00
5802;DHT22;2927;49.366;8.530;2023-08-20T09:50:17;42.20;1.00
5802;DHT22;2927;49.366;8.530;2023-08-20T09:53:06;42.40;1.00
5802;DHT22;2927;49.366;8.530;2023-08-20T09:55:38;42.40;1.00
5802;DHT22;2927;49.366;8.530;2023-08-20T09:58:05;42.60;1.00
5802;DHT22;2927;49.366;8.530;2023-08-20T10:00:32;42.60;1.00
5802;DHT22;2927;49.366;8.530;2023-08-20T10:02:58;42.40;1.00
5802;DHT22;2927;49.366;8.530;2023-08-20T10:05:25;42.50;1.00
5802;DHT22;2927;49.366;8.530;2023-08-20T10:07:50;42.00;1.00
5802;DHT22;2927;49.366;8.530;2023-08-20T10:10:18;42.10;1.00
5802;DHT22;2927;49.366;8.530;2023-08-20T10:12:44;41.70;1.00
5802;DHT22;2927;49.366;8.530;2023-08-20T10:15:12;40.60;1.00
5802;DHT22;2927;49.366;8.530;2023-08-20T10:17:39;39.90;1.00
5802;DHT22;2927;49.366;8.530;2023-08-20T10:20:06;39.10;1.00
5802;DHT22;2927;49.366;8.530;2023-08-20T10:22:39;38.00;1.00
5802;DHT22;2927;49.366;8.530;2023-08-20T10:25:09;37.70;1.00
5802;DHT22;2927;49.366;8.530;2023-08-20T10:27:37;37.30;1.00
5802;DHT22;2927;49.366;8.530;2023-08-20T10:30:09;37.20;1.00
5802;DHT22;2927;49.366;8.530;2023-08-20T10:32:51;37.20;1.00
5802;DHT22;2927;49.366;8.530;2023-08-20T10:38:11;36.70;1.00
5802;DHT22;2927;49.366;8.530;2023-08-20T10:40:54;36.40;1.00
5802;DHT22;2927;49.366;8.530;2023-08-20T10:43:30;36.00;1.00
5802;DHT22;2927;49.366;8.530;2023-08-20T10:46:04;35.50;1.00
5802;DHT22;2927;49.366;8.530;2023-08-20T10:48:32;35.40;1.00
5802;DHT22;2927;49.366;8.530;2023-08-20T10:51:05;35.20;1.00
5802;DHT22;2927;49.366;8.530;2023-08-20T10:53:31;35.30;1.00
5802;DHT22;2927;49.366;8.530;2023-08-20T10:56:07;34.60;1.00
5802;DHT22;2927;49.366;8.530;2023-08-20T10:58:33;34.90;1.00
5802;DHT22;2927;49.366;8.530;2023-08-20T11:01:21;35.10;1.00
5802;DHT22;2927;49.366;8.530;2023-08-20T11:03:48;35.30;1.00
5802;DHT22;2927;49.366;8.530;2023-08-20T11:06:14;35.30;1.00
5802;DHT22;2927;49.366;8.530;2023-08-20T11:08:42;35.30;1.00
5802;DHT22;2927;49.366;8.530;2023-08-20T11:11:08;35.40;1.00
5802;DHT22;2927;49.366;8.530;2023-08-20T11:13:35;35.60;1.00
5802;DHT22;2927;49.366;8.530;2023-08-20T11:16:06;35.50;1.00
5802;DHT22;2927;49.366;8.530;2023-08-20T11:18:33;35.30;1.00
5802;DHT22;2927;49.366;8.530;2023-08-20T11:20:59;35.10;1.00
5802;DHT22;2927;49.366;8.530;2023-08-20T11:23:25;35.10;1.00
5802;DHT22;2927;49.366;8.530;2023-08-20T11:25:51;35.10;1.00
5802;DHT22;2927;49.366;8.530;2023-08-20T11:28:17;35.10;1.00
5802;DHT22;2927;49.366;8.530;2023-08-20T11:30:43;35.00;1.00
5802;DHT22;2927;49.366;8.530;2023-08-20T11:33:08;35.10;1.00
5802;DHT22;2927;49.366;8.530;2023-08-20T11:35:35;35.20;1.00
5802;DHT22;2927;49.366;8.530;2023-08-20T11:38:03;35.30;1.00
5802;DHT22;2927;49.366;8.530;2023-08-20T11:40:29;34.90;1.00
5802;DHT22;2927;49.366;8.530;2023-08-20T11:42:54;34.60;1.00
5802;DHT22;2927;49.366;8.530;2023-08-20T11:45:20;34.80;1.00
5802;DHT22;2927;49.366;8.530;2023-08-20T11:47:45;34.60;1.00
5802;DHT22;2927;49.366;8.530;2023-08-20T11:50:11;34.70;1.00
5802;DHT22;2927;49.366;8.530;2023-08-20T11:52:37;34.30;1.00
5802;DHT22;2927;49.366;8.530;2023-08-20T11:55:05;34.40;1.00
5802;DHT22;2927;49.366;8.530;2023-08-20T11:57:31;34.80;1.00
5802;DHT22;2927;49.366;8.530;2023-08-20T12:00:03;34.50;1.00
5802;DHT22;2927;49.366;8.530;2023-08-20T12:02:36;34.60;1.00
5802;DHT22;2927;49.366;8.530;2023-08-20T12:05:02;34.50;1.00
5802;DHT22;2927;49.366;8.530;2023-08-20T12:07:29;34.40;1.00
5802;DHT22;2927;49.366;8.530;2023-08-20T12:09:54;34.40;1.00
5802;DHT22;2927;49.366;8.530;2023-08-20T12:12:21;34.30;1.00
5802;DHT22;2927;49.366;8.530;2023-08-20T12:14:47;34.40;1.00
5802;DHT22;2927;49.366;8.530;2023-08-20T12:17:12;34.60;1.00
5802;DHT22;2927;49.366;8.530;2023-08-20T12:19:41;34.60;1.00
5802;DHT22;2927;49.366;8.530;2023-08-20T12:22:07;34.60;1.00
5802;DHT22;2927;49.366;8.530;2023-08-20T12:24:33;34.60;1.00
5802;DHT22;2927;49.366;8.530;2023-08-20T12:26:59;34.80;1.00
5802;DHT22;2927;49.366;8.530;2023-08-20T12:29:25;34.80;1.00
5802;DHT22;2927;49.366;8.530;2023-08-20T12:31:50;34.90;1.00
5802;DHT22;2927;49.366;8.530;2023-08-20T12:34:16;34.80;1.00
5802;DHT22;2927;49.366;8.530;2023-08-20T12:36:41;34.50;1.00
5802;DHT22;2927;49.366;8.530;2023-08-20T12:39:07;34.50;1.00
5802;DHT22;2927;49.366;8.530;2023-08-20T12:41:33;34.20;1.00
5802;DHT22;2927;49.366;8.530;2023-08-20T12:44:00;34.30;1.00
5802;DHT22;2927;49.366;8.530;2023-08-20T12:46:26;34.40;1.00
5802;DHT22;2927;49.366;8.530;2023-08-20T12:48:52;34.40;1.00
5802;DHT22;2927;49.366;8.530;2023-08-20T12:51:17;34.40;1.00
5802;DHT22;2927;49.366;8.530;2023-08-20T12:53:43;34.20;1.00
5802;DHT22;2927;49.366;8.530;2023-08-20T12:56:09;34.00;1.00
5802;DHT22;2927;49.366;8.530;2023-08-20T12:58:34;33.90;1.00
5802;DHT22;2927;49.366;8.530;2023-08-20T13:01:00;34.10;1.00
5802;DHT22;2927;49.366;8.530;2023-08-20T13:03:26;34.10;1.00
5802;DHT22;2927;49.366;8.530;2023-08-20T13:05:53;34.10;1.00
5802;DHT22;2927;49.366;8.530;2023-08-20T13:08:19;34.00;1.00
5802;DHT22;2927;49.366;8.530;2023-08-20T13:10:53;34.00;1.00
5802;DHT22;2927;49.366;8.530;2023-08-20T13:13:21;33.90;1.00
5802;DHT22;2927;49.366;8.530;2023-08-20T13:15:47;33.80;1.00
5802;DHT22;2927;49.366;8.530;2023-08-20T13:18:13;34.00;1.00
5802;DHT22;2927;49.366;8.530;2023-08-20T13:20:40;34.00;1.00
5802;DHT22;2927;49.366;8.530;2023-08-20T13:23:05;33.80;1.00
5802;DHT22;2927;49.366;8.530;2023-08-20T13:25:31;33.80;1.00
5802;DHT22;2927;49.366;8.530;2023-08-20T13:27:56;33.80;1.00
5802;DHT22;2927;49.366;8.530;2023-08-20T13:30:22;33.90;1.00
5802;DHT22;2927;49.366;8.530;2023-08-20T13:32:49;34.00;1.00
5802;DHT22;2927;49.366;8.530;2023-08-20T13:35:15;34.00;1.00
5802;DHT22;2927;49.366;8.530;2023-08-20T13:37:40;33.90;1.00
5802;DHT22;2927;49.366;8.530;2023-08-20T13:40:06;33.90;1.00
5802;DHT22;2927;49.366;8.530;2023-08-20T13:42:34;33.90;1.00
5802;DHT22;2927;49.366;8.530;2023-08-20T13:45:00;33.90;1.00
5802;DHT22;2927;49.366;8.530;2023-08-20T13:47:26;33.90;1.00
5802;DHT22;2927;49.366;8.530;2023-08-20T13:49:51;33.90;1.00
5802;DHT22;2927;49.366;8.530;2023-08-20T13:52:17;33.90;1.00
5802;DHT22;2927;49.366;8.530;2023-08-20T13:54:42;33.90;1.00
5802;DHT22;2927;49.366;8.530;2023-08-20T13:57:09;33.80;1.00
5802;DHT22;2927;49.366;8.530;2023-08-20T13:59:34;34.00;1.00
5802;DHT22;2927;49.366;8.530;2023-08-20T14:02:00;34.00;1.00
5802;DHT22;2927;49.366;8.530;2023-08-20T14:04:25;33.90;1.00
5802;DHT22;2927;49.366;8.530;2023-08-20T14:06:51;33.90;1.00
5802;DHT22;2927;49.366;8.530;2023-08-20T14:09:17;33.70;1.00
5802;DHT22;2927;49.366;8.530;2023-08-20T14:11:44;33.50;1.00
5802;DHT22;2927;49.366;8.530;2023-08-20T14:14:10;33.50;1.00
5802;DHT22;2927;49.366;8.530;2023-08-20T14:16:35;33.50;1.00
5802;DHT22;2927;49.366;8.530;2023-08-20T14:19:01;33.60;1.00
5802;DHT22;2927;49.366;8.530;2023-08-20T14:21:26;33.60;1.00
5802;DHT22;2927;49.366;8.530;2023-08-20T14:23:52;33.60;1.00
5802;DHT22;2927;49.366;8.530;2023-08-20T14:26:18;33.60;1.00
5802;DHT22;2927;49.366;8.530;2023-08-20T14:28:43;33.60;1.00
5802;DHT22;2927;49.366;8.530;2023-08-20T14:31:09;33.70;1.00
5802;DHT22;2927;49.366;8.530;2023-08-20T14:33:35;33.80;1.00
5802;DHT22;2927;49.366;8.530;2023-08-20T14:36:01;33.80;1.00
5802;DHT22;2927;49.366;8.530;2023-08-20T14:38:28;33.90;1.00
5802;DHT22;2927;49.366;8.530;2023-08-20T14:40:58;33.90;1.00
5802;DHT22;2927;49.366;8.530;2023-08-20T14:43:24;33.90;1.00
5802;DHT22;2927;49.366;8.530;2023-08-20T14:45:49;33.80;1.00
5802;DHT22;2927;49.366;8.530;2023-08-20T14:48:15;34.00;1.00
5802;DHT22;2927;49.366;8.530;2023-08-20T14:50:40;33.90;1.00
5802;DHT22;2927;49.366;8.530;2023-08-20T14:53:06;34.00;1.00
5802;DHT22;2927;49.366;8.530;2023-08-20T14:55:31;33.90;1.00
5802;DHT22;2927;49.366;8.530;2023-08-20T14:57:57;33.90;1.00
5802;DHT22;2927;49.366;8.530;2023-08-20T15:00:22;33.90;1.00
5802;DHT22;2927;49.366;8.530;2023-08-20T15:02:49;33.90;1.00
5802;DHT22;2927;49.366;8.530;2023-08-20T15:05:14;33.90;1.00
5802;DHT22;2927;49.366;8.530;2023-08-20T15:07:40;33.90;1.00
5802;DHT22;2927;49.366;8.530;2023-08-20T15:10:06;33.90;1.00
5802;DHT22;2927;49.366;8.530;2023-08-20T15:12:36;33.90;1.00
5802;DHT22;2927;49.366;8.530;2023-08-20T15:15:05;33.90;1.00
5802;DHT22;2927;49.366;8.530;2023-08-20T15:17:31;33.90;1.00
5802;DHT22;2927;49.366;8.530;2023-08-20T15:19:58;33.90;1.00
5802;DHT22;2927;49.366;8.530;2023-08-20T15:22:23;33.80;1.00
5802;DHT22;2927;49.366;8.530;2023-08-20T15:24:49;33.60;1.00
5802;DHT22;2927;49.366;8.530;2023-08-20T15:27:19;33.40;1.00
5802;DHT22;2927;49.366;8.530;2023-08-20T15:29:45;33.60;1.00
5802;DHT22;2927;49.366;8.530;2023-08-20T15:32:11;33.60;1.00
5802;DHT22;2927;49.366;8.530;2023-08-20T15:34:37;33.60;1.00
5802;DHT22;2927;49.366;8.530;2023-08-20T15:37:02;33.60;1.00
5802;DHT22;2927;49.366;8.530;2023-08-20T15:39:31;33.50;1.00
5802;DHT22;2927;49.366;8.530;2023-08-20T15:41:57;33.40;1.00
5802;DHT22;2927;49.366;8.530;2023-08-20T15:44:22;33.30;1.00
5802;DHT22;2927;49.366;8.530;2023-08-20T15:46:48;33.20;1.00
5802;DHT22;2927;49.366;8.530;2023-08-20T15:49:13;33.10;1.00
5802;DHT22;2927;49.366;8.530;2023-08-20T15:51:39;33.00;1.00
5802;DHT22;2927;49.366;8.530;2023-08-20T15:54:05;33.10;1.00
5802;DHT22;2927;49.366;8.530;2023-08-20T15:56:30;33.10;1.00
5802;DHT22;2927;49.366;8.530;2023-08-20T15:58:56;33.10;1.00
5802;DHT22;2927;49.366;8.530;2023-08-20T16:01:22;33.10;1.00
5802;DHT22;2927;49.366;8.530;2023-08-20T16:03:50;32.90;1.00
5802;DHT22;2927;49.366;8.530;2023-08-20T16:06:15;32.80;1.00
5802;DHT22;2927;49.366;8.530;2023-08-20T16:08:41;32.90;1.00
5802;DHT22;2927;49.366;8.530;2023-08-20T16:11:06;32.90;1.00
5802;DHT22;2927;49.366;8.530;2023-08-20T16:13:32;32.90;1.00
5802;DHT22;2927;49.366;8.530;2023-08-20T16:15:58;33.00;1.00
5802;DHT22;2927;49.366;8.530;2023-08-20T16:18:23;33.20;1.00
5802;DHT22;2927;49.366;8.530;2023-08-20T16:20:49;33.30;1.00
5802;DHT22;2927;49.366;8.530;2023-08-20T16:23:14;33.40;1.00